createdAt,value
2022-12-06T00:01:37.622Z,17.67
2022-12-06T00:04:09.073Z,20.20
2022-12-06T00:06:44.877Z,19.85
2022-12-06T00:09:19.891Z,19.38
2022-12-06T00:11:48.269Z,17.67
2022-12-06T00:14:18.024Z,18.63
2022-12-06T00:16:47.456Z,17.95
2022-12-06T00:19:20.628Z,19.45
2022-12-06T00:21:50.468Z,19.50
2022-12-06T00:24:21.957Z,19.67
2022-12-06T00:26:51.257Z,19.05
2022-12-06T00:29:24.664Z,19.55
2022-12-06T00:31:54.029Z,18.60
2022-12-06T00:34:22.158Z,18.70
2022-12-06T00:36:50.641Z,19.35
2022-12-06T00:39:18.902Z,20.13
2022-12-06T00:41:48.673Z,19.55
2022-12-06T00:44:17.152Z,20.25
2022-12-06T00:46:45.429Z,19.77
2022-12-06T00:49:13.729Z,19.98
2022-12-06T00:51:43.365Z,18.75
2022-12-06T00:54:14.871Z,18.55
2022-12-06T00:56:43.165Z,17.92
2022-12-06T00:59:11.567Z,18.88
2022-12-06T01:01:39.926Z,17.77
2022-12-06T01:04:08.227Z,19.60
2022-12-06T01:06:38.685Z,20.33
2022-12-06T01:09:10.058Z,19.23
2022-12-06T01:11:38.934Z,20.25
2022-12-06T01:14:07.432Z,19.40
2022-12-06T01:16:35.986Z,20.40
2022-12-06T01:19:06.219Z,20.63
2022-12-06T01:21:34.758Z,19.25
2022-12-06T01:24:02.834Z,18.10
2022-12-06T01:26:33.818Z,18.52
2022-12-06T01:29:02.659Z,19.83
2022-12-06T01:31:37.639Z,19.70
2022-12-06T01:34:16.198Z,19.58
2022-12-06T01:36:45.837Z,19.05
2022-12-06T01:39:13.896Z,19.92
2022-12-06T01:41:43.114Z,20.52
2022-12-06T01:44:47.126Z,18.27
2022-12-06T01:50:16.878Z,18.92
2022-12-06T01:53:07.189Z,17.88
2022-12-06T01:55:39.236Z,17.20
2022-12-06T01:58:12.427Z,18.90
2022-12-06T02:00:40.507Z,17.60
2022-12-06T02:03:16.921Z,16.65
2022-12-06T02:05:45.727Z,17.52
2022-12-06T02:08:15.815Z,17.63
2022-12-06T02:10:44.021Z,17.20
2022-12-06T02:13:14.061Z,17.83
2022-12-06T02:16:13.737Z,17.30
2022-12-06T02:19:33.958Z,17.52
2022-12-06T02:22:31.000Z,16.23
2022-12-06T02:25:43.564Z,17.88
2022-12-06T02:28:23.806Z,17.95
2022-12-06T02:31:01.732Z,17.08
2022-12-06T02:33:41.439Z,19.38
2022-12-06T02:36:31.797Z,17.48
2022-12-06T02:39:32.207Z,18.38
2022-12-06T02:42:09.207Z,20.27
2022-12-06T02:44:43.458Z,20.65
2022-12-06T02:47:13.788Z,20.58
2022-12-06T02:49:46.878Z,19.20
2022-12-06T02:52:20.908Z,19.23
2022-12-06T02:54:51.211Z,20.33
2022-12-06T02:57:25.762Z,20.77
2022-12-06T02:59:55.190Z,17.13
2022-12-06T03:02:24.823Z,16.10
2022-12-06T03:04:52.978Z,16.55
2022-12-06T03:07:27.129Z,19.90
2022-12-06T03:10:33.568Z,15.00
2022-12-06T03:13:25.351Z,19.13
2022-12-06T03:16:10.737Z,14.88
2022-12-06T03:18:59.027Z,17.38
2022-12-06T03:21:41.848Z,16.85
2022-12-06T03:24:14.438Z,14.93
2022-12-06T03:26:46.469Z,16.23
2022-12-06T03:29:18.567Z,13.77
2022-12-06T03:31:49.819Z,15.10
2022-12-06T03:34:23.549Z,13.25
2022-12-06T03:36:53.567Z,11.88
2022-12-06T03:39:30.499Z,12.77
2022-12-06T03:41:59.859Z,13.93
2022-12-06T03:44:28.267Z,14.00
2022-12-06T03:47:19.530Z,14.43
2022-12-06T03:50:10.386Z,13.57
2022-12-06T03:52:40.076Z,14.48
2022-12-06T03:55:09.759Z,15.05
2022-12-06T03:57:37.839Z,16.33
2022-12-06T04:00:07.888Z,15.80
2022-12-06T04:02:39.608Z,14.77
2022-12-06T04:05:08.432Z,16.00
2022-12-06T04:07:36.999Z,13.90
2022-12-06T04:10:06.489Z,14.38
2022-12-06T04:12:54.492Z,15.20
2022-12-06T04:15:24.201Z,14.68
2022-12-06T04:18:10.729Z,14.95
2022-12-06T04:21:19.573Z,15.57
2022-12-06T04:23:50.437Z,14.68
2022-12-06T04:26:22.460Z,14.43
2022-12-06T04:29:10.850Z,13.60
2022-12-06T04:31:59.411Z,13.38
2022-12-06T04:34:46.172Z,13.93
2022-12-06T04:37:32.751Z,14.77
2022-12-06T04:40:01.266Z,14.32
2022-12-06T04:42:48.547Z,14.25
2022-12-06T04:45:16.581Z,14.18
2022-12-06T04:47:45.028Z,14.60
2022-12-06T04:50:13.010Z,15.18
2022-12-06T04:52:41.421Z,15.30
2022-12-06T04:55:09.817Z,15.10
2022-12-06T04:57:38.751Z,14.07
2022-12-06T05:00:07.958Z,13.18
2022-12-06T05:02:37.398Z,13.57
2022-12-06T05:05:06.201Z,14.77
2022-12-06T05:07:35.288Z,14.73
2022-12-06T05:10:03.978Z,15.35
2022-12-06T05:12:32.508Z,15.10
2022-12-06T05:15:00.508Z,15.90
2022-12-06T05:17:29.938Z,17.58
2022-12-06T05:19:58.379Z,16.05
2022-12-06T05:22:33.317Z,17.17
2022-12-06T05:25:01.303Z,17.38
2022-12-06T05:27:34.412Z,18.75
2022-12-06T05:30:05.967Z,19.15
2022-12-06T05:32:35.558Z,19.55
2022-12-06T05:35:03.689Z,17.85
2022-12-06T05:37:33.196Z,20.17
2022-12-06T05:40:01.634Z,17.67
2022-12-06T05:42:30.307Z,18.25
2022-12-06T05:44:59.242Z,15.63
2022-12-06T05:47:27.608Z,15.75
2022-12-06T05:49:55.658Z,14.40
2022-12-06T05:52:24.070Z,14.73
2022-12-06T05:54:52.178Z,16.30
2022-12-06T05:57:21.778Z,16.15
2022-12-06T05:59:49.871Z,15.43
2022-12-06T06:02:18.562Z,15.60
2022-12-06T06:04:46.918Z,15.75
2022-12-06T06:07:15.278Z,16.63
2022-12-06T06:09:43.471Z,16.30
2022-12-06T06:12:12.931Z,16.27
2022-12-06T06:14:41.348Z,15.70
2022-12-06T06:17:09.800Z,16.38
2022-12-06T06:19:37.859Z,15.82
2022-12-06T06:22:07.889Z,14.48
2022-12-06T06:24:37.908Z,16.05
2022-12-06T06:27:07.607Z,16.08
2022-12-06T06:29:36.922Z,15.23
2022-12-06T06:32:08.034Z,15.57
2022-12-06T06:34:36.809Z,16.80
2022-12-06T06:37:05.207Z,15.38
2022-12-06T06:39:33.338Z,13.80
2022-12-06T06:42:01.797Z,14.63
2022-12-06T06:44:29.850Z,14.00
2022-12-06T06:46:58.366Z,15.48
2022-12-06T06:49:26.430Z,15.85
2022-12-06T06:51:54.821Z,15.23
2022-12-06T06:54:24.011Z,15.57
2022-12-06T06:56:55.943Z,16.02
2022-12-06T06:59:25.468Z,20.70
2022-12-06T07:01:54.086Z,19.98
2022-12-06T07:04:22.901Z,24.90
2022-12-06T07:06:51.487Z,24.23
2022-12-06T07:09:20.638Z,21.00
2022-12-06T07:11:49.060Z,20.15
2022-12-06T07:14:17.051Z,22.30
2022-12-06T07:16:45.541Z,21.13
2022-12-06T07:19:13.678Z,21.25
2022-12-06T07:21:42.029Z,20.48
2022-12-06T07:24:10.977Z,22.25
2022-12-06T07:26:39.297Z,20.27
2022-12-06T07:29:07.217Z,21.05
2022-12-06T07:31:35.630Z,19.25
2022-12-06T07:34:04.140Z,21.02
2022-12-06T07:36:33.533Z,19.02
2022-12-06T07:39:01.600Z,21.92
2022-12-06T07:41:49.501Z,20.48
2022-12-06T07:44:58.299Z,19.13
2022-12-06T07:47:38.151Z,19.75
2022-12-06T07:50:12.872Z,19.95
2022-12-06T07:52:46.186Z,22.48
2022-12-06T07:55:14.466Z,18.52
2022-12-06T07:57:44.230Z,21.40
2022-12-06T08:00:17.039Z,19.30
2022-12-06T08:02:45.840Z,18.67
2022-12-06T08:05:14.702Z,18.23
2022-12-06T08:07:44.353Z,20.75
2022-12-06T08:10:12.602Z,19.73
2022-12-06T08:12:43.754Z,19.27
2022-12-06T08:15:14.811Z,18.98
2022-12-06T08:17:43.286Z,17.73
2022-12-06T08:20:12.653Z,18.83
2022-12-06T08:22:41.116Z,17.58
2022-12-06T08:25:09.639Z,19.10
2022-12-06T08:27:37.988Z,18.77
2022-12-06T08:30:06.694Z,19.33
2022-12-06T08:32:35.102Z,19.23
2022-12-06T08:35:03.077Z,19.05
2022-12-06T08:37:31.920Z,19.55
2022-12-06T08:40:00.324Z,18.67
2022-12-06T08:42:30.329Z,19.77
2022-12-06T08:44:58.423Z,17.60
2022-12-06T08:47:26.780Z,17.52
2022-12-06T08:49:54.899Z,19.00
2022-12-06T08:52:23.374Z,17.23
2022-12-06T08:54:51.430Z,16.33
2022-12-06T08:57:19.821Z,16.23
2022-12-06T08:59:48.151Z,17.05
2022-12-06T09:02:16.605Z,17.20
2022-12-06T09:04:44.886Z,18.60
2022-12-06T09:07:13.220Z,18.08
2022-12-06T09:09:41.315Z,20.38
2022-12-06T09:12:09.703Z,18.38
2022-12-06T09:14:37.840Z,18.20
2022-12-06T09:17:06.563Z,16.90
2022-12-06T09:19:35.070Z,19.70
2022-12-06T09:22:03.547Z,18.85
2022-12-06T09:24:31.624Z,18.02
2022-12-06T09:26:59.930Z,17.92
2022-12-06T09:29:27.904Z,19.48
2022-12-06T09:31:57.080Z,19.70
2022-12-06T09:34:25.320Z,20.70
2022-12-06T09:37:03.000Z,20.90
2022-12-06T09:40:00.190Z,21.13
2022-12-06T09:42:55.410Z,21.90
2022-12-06T09:45:26.241Z,22.70
2022-12-06T09:48:32.612Z,23.70
2022-12-06T09:51:03.620Z,22.77
2022-12-06T09:54:11.790Z,23.52
2022-12-06T09:57:02.391Z,22.70
2022-12-06T09:59:42.099Z,21.60
2022-12-06T10:02:24.137Z,20.50
2022-12-06T10:05:15.640Z,21.73
2022-12-06T10:08:11.805Z,20.80
2022-12-06T10:10:49.373Z,20.17
2022-12-06T10:13:33.244Z,19.80
2022-12-06T10:18:50.608Z,19.75
2022-12-06T10:21:40.493Z,19.00
2022-12-06T10:24:33.561Z,20.67
2022-12-06T10:27:12.695Z,19.83
2022-12-06T10:29:47.282Z,21.70
2022-12-06T10:32:41.907Z,21.15
2022-12-06T10:38:34.982Z,19.70
2022-12-06T10:41:18.463Z,19.00
2022-12-06T10:44:11.755Z,21.27
2022-12-06T10:47:04.849Z,19.65
2022-12-06T10:49:57.795Z,20.30
2022-12-06T10:52:28.563Z,19.98
2022-12-06T10:55:02.701Z,20.23
2022-12-06T11:00:16.698Z,19.13
2022-12-06T11:02:58.525Z,21.45
2022-12-06T11:05:55.802Z,20.05
2022-12-06T11:08:49.093Z,19.10
2022-12-06T11:11:31.785Z,19.23
2022-12-06T11:14:27.501Z,19.05
2022-12-06T11:17:05.813Z,17.13
2022-12-06T11:19:40.303Z,18.33
2022-12-06T11:22:34.572Z,18.95
2022-12-06T11:26:00.927Z,19.80
2022-12-06T11:28:44.612Z,20.55
2022-12-06T11:31:21.379Z,19.60
2022-12-06T11:33:49.873Z,19.20
2022-12-06T11:36:19.131Z,19.45
2022-12-06T11:38:48.950Z,19.73
2022-12-06T11:41:25.391Z,21.58
2022-12-06T11:43:56.203Z,20.50
2022-12-06T11:46:25.929Z,18.60
2022-12-06T11:48:57.671Z,19.20
2022-12-06T11:51:26.100Z,18.00
2022-12-06T11:54:22.319Z,19.90
2022-12-06T11:56:51.230Z,18.15
2022-12-06T11:59:29.570Z,18.92
2022-12-06T12:02:03.726Z,19.33
2022-12-06T12:04:37.039Z,18.00
2022-12-06T12:07:17.530Z,19.05
2022-12-06T12:09:59.983Z,18.73
2022-12-06T12:12:56.761Z,17.83
2022-12-06T12:15:28.094Z,18.75
2022-12-06T12:17:59.180Z,17.92
2022-12-06T12:20:34.201Z,18.05
2022-12-06T12:23:15.201Z,18.30
2022-12-06T12:25:44.169Z,17.38
2022-12-06T12:28:30.675Z,17.20
2022-12-06T12:31:08.913Z,16.98
2022-12-06T12:33:37.253Z,17.10
2022-12-06T12:36:05.604Z,19.05
2022-12-06T12:39:13.333Z,17.52
2022-12-06T12:41:44.640Z,16.45
2022-12-06T12:44:36.876Z,18.13
2022-12-06T12:47:20.426Z,18.10
2022-12-06T12:50:20.536Z,19.58
2022-12-06T12:52:48.842Z,17.40
2022-12-06T12:55:18.891Z,21.38
2022-12-06T12:57:53.514Z,21.33
2022-12-06T13:00:31.199Z,18.60
2022-12-06T13:06:43.014Z,19.23
2022-12-06T13:09:49.177Z,19.17
2022-12-06T13:12:25.724Z,19.25
2022-12-06T13:15:20.437Z,20.92
2022-12-06T13:20:34.656Z,19.55
2022-12-06T13:23:09.195Z,19.52
2022-12-06T13:25:37.576Z,20.17
2022-12-06T13:28:14.958Z,17.88
2022-12-06T13:30:46.155Z,19.45
2022-12-06T13:33:25.850Z,19.17
2022-12-06T13:36:00.835Z,20.65
2022-12-06T13:38:38.198Z,17.52
2022-12-06T13:41:11.765Z,18.15
2022-12-06T13:43:40.237Z,17.42
2022-12-06T13:46:14.578Z,17.42
2022-12-06T13:51:31.084Z,16.25
2022-12-06T13:54:05.154Z,18.00
2022-12-06T13:56:33.630Z,16.88
2022-12-06T13:59:12.003Z,17.08
2022-12-06T14:01:42.330Z,16.83
2022-12-06T14:12:20.770Z,16.63
2022-12-06T14:14:57.263Z,16.88
2022-12-06T14:18:01.724Z,16.45
2022-12-06T14:20:32.084Z,18.23
2022-12-06T14:23:00.467Z,17.52
2022-12-06T14:25:32.193Z,21.35
2022-12-06T14:28:13.261Z,19.15
2022-12-06T14:30:42.236Z,18.52
2022-12-06T14:33:23.226Z,17.67
2022-12-06T14:35:53.292Z,16.58
2022-12-06T14:38:25.328Z,15.38
2022-12-06T14:41:13.104Z,15.60
2022-12-06T14:43:46.398Z,16.08
2022-12-06T14:46:17.855Z,14.90
2022-12-06T14:49:05.973Z,15.82
2022-12-06T14:51:37.038Z,15.23
2022-12-06T14:54:32.618Z,15.40
2022-12-06T14:57:02.295Z,15.18
2022-12-06T15:02:28.315Z,16.85
2022-12-06T15:04:56.683Z,16.42
2022-12-06T15:07:43.595Z,14.85
2022-12-06T15:10:19.887Z,15.65
2022-12-06T15:12:55.605Z,18.15
2022-12-06T15:15:39.173Z,16.98
2022-12-06T15:18:16.336Z,17.60
2022-12-06T15:20:44.645Z,18.50
2022-12-06T15:23:47.355Z,18.17
2022-12-06T15:26:16.466Z,19.05
2022-12-06T15:28:45.206Z,19.27
2022-12-06T15:31:22.860Z,19.48
2022-12-06T15:33:51.446Z,21.08
2022-12-06T15:36:23.127Z,17.90
2022-12-06T15:38:51.527Z,16.98
2022-12-06T15:41:23.624Z,16.80
2022-12-06T15:43:53.843Z,16.17
2022-12-06T15:46:25.354Z,19.00
2022-12-06T15:48:54.447Z,17.23
2022-12-06T15:51:26.677Z,16.70
2022-12-06T15:53:57.516Z,20.42
2022-12-06T15:56:30.502Z,18.55
2022-12-06T15:58:58.844Z,17.33
2022-12-06T16:01:39.304Z,19.67
2022-12-06T16:04:17.173Z,17.75
2022-12-06T16:06:46.345Z,16.75
2022-12-06T16:09:16.885Z,19.77
2022-12-06T16:11:45.785Z,16.85
2022-12-06T16:14:14.633Z,17.65
2022-12-06T16:16:43.734Z,16.60
2022-12-06T16:19:11.925Z,17.75
2022-12-06T16:21:56.043Z,18.38
2022-12-06T16:24:24.445Z,17.40
2022-12-06T16:26:52.776Z,16.70
2022-12-06T16:29:26.300Z,18.27
2022-12-06T16:31:54.785Z,16.75
2022-12-06T16:34:23.052Z,16.88
2022-12-06T16:37:01.771Z,17.85
2022-12-06T16:39:33.736Z,17.10
2022-12-06T16:42:06.418Z,17.98
2022-12-06T16:44:51.490Z,16.50
2022-12-06T16:49:48.792Z,16.10
2022-12-06T16:52:17.932Z,16.92
2022-12-06T16:54:46.002Z,16.73
2022-12-06T16:57:14.975Z,17.17
2022-12-06T16:59:43.415Z,17.10
2022-12-06T17:02:29.359Z,17.80
2022-12-06T17:05:01.927Z,19.30
2022-12-06T17:07:31.017Z,19.70
2022-12-06T17:09:59.494Z,20.30
2022-12-06T17:12:28.924Z,20.35
2022-12-06T17:14:57.105Z,19.00
2022-12-06T17:17:26.635Z,18.88
2022-12-06T17:19:56.449Z,19.65
2022-12-06T17:22:26.047Z,22.27
2022-12-06T17:24:54.556Z,19.35
2022-12-06T17:27:23.176Z,18.67
2022-12-06T17:29:51.386Z,19.08
2022-12-06T17:32:21.114Z,23.45
2022-12-06T17:34:49.317Z,22.55
2022-12-06T17:37:17.794Z,22.50
2022-12-06T17:39:46.063Z,21.42
2022-12-06T17:42:34.308Z,21.13
2022-12-06T17:45:02.993Z,22.48
2022-12-06T17:47:32.219Z,23.60
2022-12-06T17:50:00.870Z,21.25
2022-12-06T17:52:29.588Z,21.30
2022-12-06T17:54:57.984Z,28.05
2022-12-06T17:57:26.472Z,21.90
2022-12-06T17:59:54.494Z,30.42
2022-12-06T18:02:24.813Z,34.15
2022-12-06T18:04:54.369Z,97.65
2022-12-06T18:07:22.979Z,40.83
2022-12-06T18:09:51.154Z,26.80
2022-12-06T18:12:19.636Z,29.83
2022-12-06T18:14:47.695Z,21.05
2022-12-06T18:17:16.205Z,20.83
2022-12-06T18:19:47.073Z,19.95
2022-12-06T18:22:15.789Z,20.48
2022-12-06T18:24:44.953Z,18.23
2022-12-06T18:27:13.412Z,19.98
2022-12-06T18:29:41.909Z,21.25
2022-12-06T18:32:10.482Z,25.05
2022-12-06T18:34:38.719Z,21.90
2022-12-06T18:37:07.168Z,21.35
2022-12-06T18:39:35.225Z,23.92
2022-12-06T18:42:03.726Z,23.30
2022-12-06T18:44:32.575Z,20.80
2022-12-06T18:47:01.136Z,24.55
2022-12-06T18:49:29.985Z,22.25
2022-12-06T18:51:58.985Z,20.83
2022-12-06T18:54:28.747Z,20.45
2022-12-06T18:56:59.425Z,28.33
2022-12-06T18:59:27.970Z,21.42
2022-12-06T19:01:56.850Z,22.80
2022-12-06T19:04:25.325Z,23.25
2022-12-06T19:06:54.640Z,22.95
2022-12-06T19:09:23.414Z,25.58
2022-12-06T19:11:51.791Z,21.77
2022-12-06T19:14:19.887Z,22.92
2022-12-06T19:16:50.108Z,24.70
2022-12-06T19:19:26.125Z,22.63
2022-12-06T19:21:55.733Z,23.33
2022-12-06T19:24:26.031Z,22.60
2022-12-06T19:26:58.157Z,22.10
2022-12-06T19:29:27.435Z,24.60
2022-12-06T19:31:55.914Z,24.83
2022-12-06T19:34:27.081Z,24.70
2022-12-06T19:36:57.344Z,20.52
2022-12-06T19:39:26.394Z,19.38
2022-12-06T19:42:14.143Z,20.83
2022-12-06T19:44:42.738Z,17.63
2022-12-06T19:47:11.817Z,20.95
2022-12-06T19:49:40.036Z,19.10
2022-12-06T19:52:08.522Z,20.77
2022-12-06T19:54:37.856Z,19.30
2022-12-06T19:57:06.341Z,19.40
2022-12-06T19:59:37.446Z,19.40
2022-12-06T20:02:08.564Z,17.30
2022-12-06T20:04:39.934Z,18.85
2022-12-06T20:07:09.018Z,23.75
2022-12-06T20:09:37.331Z,19.20
2022-12-06T20:12:06.229Z,18.42
2022-12-06T20:14:41.985Z,18.95
2022-12-06T20:17:18.310Z,18.65
2022-12-06T20:19:46.859Z,18.17
2022-12-06T20:22:17.496Z,16.52
2022-12-06T20:24:45.923Z,18.92
2022-12-06T20:27:14.696Z,19.20
2022-12-06T20:29:42.915Z,21.80
2022-12-06T20:32:13.148Z,16.98
2022-12-06T20:34:41.405Z,18.45
2022-12-06T20:37:10.779Z,17.52
2022-12-06T20:39:38.965Z,17.48
2022-12-06T20:42:07.863Z,16.42
2022-12-06T20:44:36.345Z,15.73
2022-12-06T20:47:04.943Z,16.08
2022-12-06T20:49:33.252Z,15.35
2022-12-06T20:52:03.101Z,15.82
2022-12-06T20:54:31.501Z,17.02
2022-12-06T20:56:59.947Z,16.67
2022-12-06T20:59:29.770Z,16.98
2022-12-06T21:01:58.332Z,16.67
2022-12-06T21:04:27.729Z,17.75
2022-12-06T21:06:56.865Z,18.25
2022-12-06T21:09:25.211Z,16.23
2022-12-06T21:11:54.680Z,16.80
2022-12-06T21:14:23.138Z,16.25
2022-12-06T21:16:51.884Z,15.52
2022-12-06T21:19:20.270Z,16.13
2022-12-06T21:21:54.413Z,15.40
2022-12-06T21:26:50.915Z,14.77
2022-12-06T21:29:30.555Z,15.50
2022-12-06T21:32:02.506Z,15.30
2022-12-06T21:34:30.679Z,16.10
2022-12-06T21:37:00.233Z,16.85
2022-12-06T21:39:28.340Z,16.00
2022-12-06T21:41:56.991Z,17.40
2022-12-06T21:44:25.275Z,16.65
2022-12-06T21:46:54.219Z,16.38
2022-12-06T21:49:22.495Z,15.95
2022-12-06T21:51:55.047Z,15.60
2022-12-06T21:54:26.692Z,16.67
2022-12-06T21:56:57.384Z,19.17
2022-12-06T21:59:27.023Z,15.80
2022-12-06T22:01:55.498Z,16.50
2022-12-06T22:04:24.066Z,15.23
2022-12-06T22:06:52.663Z,14.93
2022-12-06T22:09:20.807Z,15.10
2022-12-06T22:11:49.349Z,14.82
2022-12-06T22:14:17.443Z,15.43
2022-12-06T22:16:45.823Z,15.55
2022-12-06T22:19:13.844Z,16.65
2022-12-06T22:21:42.342Z,14.25
2022-12-06T22:24:10.506Z,13.95
2022-12-06T22:26:40.804Z,13.18
2022-12-06T22:29:09.807Z,14.07
2022-12-06T22:31:38.467Z,13.02
2022-12-06T22:34:06.423Z,12.23
2022-12-06T22:36:36.335Z,17.33
2022-12-06T22:39:06.414Z,13.55
2022-12-06T22:41:36.154Z,15.10
2022-12-06T22:44:06.633Z,13.10
2022-12-06T22:46:36.903Z,15.15
2022-12-06T22:49:06.572Z,16.63
2022-12-06T22:51:37.981Z,15.02
2022-12-06T22:54:10.610Z,13.68
2022-12-06T22:56:41.695Z,16.53
2022-12-06T22:59:11.132Z,18.77
2022-12-06T23:01:41.589Z,15.82
2022-12-06T23:04:11.615Z,13.90
2022-12-06T23:06:40.364Z,15.68
2022-12-06T23:09:08.388Z,13.85
2022-12-06T23:11:37.631Z,14.27
2022-12-06T23:14:08.003Z,22.98
2022-12-06T23:16:37.344Z,12.95
2022-12-06T23:19:05.639Z,12.60
2022-12-06T23:21:36.699Z,13.27
2022-12-06T23:24:07.860Z,11.73
2022-12-06T23:26:40.543Z,11.15
2022-12-06T23:29:09.280Z,13.68
2022-12-06T23:31:42.055Z,14.63
2022-12-06T23:34:26.326Z,12.02
2022-12-06T23:36:55.253Z,13.02
2022-12-06T23:39:23.453Z,11.23
2022-12-06T23:41:51.910Z,12.02
2022-12-06T23:44:20.037Z,11.60
2022-12-06T23:46:48.385Z,11.82
2022-12-06T23:49:19.420Z,12.68
2022-12-06T23:51:48.825Z,12.63
2022-12-06T23:54:18.339Z,12.00
2022-12-06T23:56:47.024Z,12.10
2022-12-06T23:59:16.329Z,12.35
